createdAt,value
2018-08-28T00:00:30.972Z,0.00
2018-08-28T00:01:30.944Z,0.00
2018-08-28T00:02:30.921Z,0.00
2018-08-28T00:03:30.888Z,0.00
2018-08-28T00:04:30.861Z,0.00
2018-08-28T00:05:30.832Z,0.00
2018-08-28T00:06:30.804Z,0.00
2018-08-28T00:07:30.777Z,0.00
2018-08-28T00:08:30.749Z,0.00
2018-08-28T00:09:30.721Z,0.00
2018-08-28T00:10:30.696Z,0.00
2018-08-28T00:11:30.669Z,0.00
2018-08-28T00:12:30.638Z,0.00
2018-08-28T00:13:30.610Z,0.00
2018-08-28T00:14:30.582Z,0.00
2018-08-28T00:15:30.553Z,0.00
2018-08-28T00:16:30.525Z,0.00
2018-08-28T00:17:30.500Z,0.00
2018-08-28T00:18:30.470Z,0.00
2018-08-28T00:19:30.442Z,0.00
2018-08-28T00:20:30.414Z,0.00
2018-08-28T00:21:30.387Z,0.00
2018-08-28T00:22:30.360Z,0.00
2018-08-28T00:23:30.332Z,0.00
2018-08-28T00:24:30.303Z,0.00
2018-08-28T00:25:30.332Z,0.00
2018-08-28T00:26:30.248Z,0.00
2018-08-28T00:27:30.219Z,0.00
2018-08-28T00:28:30.195Z,0.00
2018-08-28T00:29:30.162Z,0.00
2018-08-28T00:30:30.136Z,0.00
2018-08-28T00:31:30.109Z,0.00
2018-08-28T00:32:30.080Z,0.00
2018-08-28T00:33:30.051Z,0.00
2018-08-28T00:34:30.024Z,0.00
2018-08-28T00:35:29.995Z,0.00
2018-08-28T00:36:29.967Z,0.00
2018-08-28T00:37:29.940Z,0.00
2018-08-28T00:38:29.912Z,0.00
2018-08-28T00:39:29.882Z,0.00
2018-08-28T00:40:29.855Z,0.00
2018-08-28T00:41:29.825Z,0.00
2018-08-28T00:42:29.800Z,0.00
2018-08-28T00:43:29.771Z,0.00
2018-08-28T00:44:29.743Z,0.00
2018-08-28T00:45:29.715Z,0.00
2018-08-28T00:46:29.689Z,0.00
2018-08-28T00:47:29.660Z,0.00
2018-08-28T00:48:29.631Z,0.00
2018-08-28T00:49:29.603Z,0.00
2018-08-28T00:50:29.574Z,0.00
2018-08-28T00:51:29.547Z,0.00
2018-08-28T00:52:29.622Z,0.00
2018-08-28T00:53:29.491Z,0.00
2018-08-28T00:54:29.467Z,0.00
2018-08-28T00:55:29.442Z,0.00
2018-08-28T00:56:29.404Z,0.00
2018-08-28T00:57:29.379Z,0.00
2018-08-28T00:58:29.351Z,0.00
2018-08-28T00:59:29.322Z,0.00
2018-08-28T01:00:29.295Z,0.00
2018-08-28T01:01:29.267Z,0.00
2018-08-28T01:02:29.241Z,0.00
2018-08-28T01:03:29.209Z,0.00
2018-08-28T01:04:29.181Z,0.00
2018-08-28T01:05:29.153Z,0.00
2018-08-28T01:06:29.127Z,0.00
2018-08-28T01:07:29.101Z,0.00
2018-08-28T01:08:29.070Z,0.00
2018-08-28T01:09:29.041Z,0.00
2018-08-28T01:10:29.013Z,0.00
2018-08-28T01:11:28.986Z,0.00
2018-08-28T01:12:28.957Z,0.00
2018-08-28T01:13:28.928Z,0.00
2018-08-28T01:14:28.938Z,0.00
2018-08-28T01:15:28.874Z,0.00
2018-08-28T01:16:28.846Z,0.00
2018-08-28T01:17:28.814Z,0.00
2018-08-28T01:18:28.796Z,0.00
2018-08-28T01:19:28.763Z,0.00
2018-08-28T01:20:28.733Z,0.00
2018-08-28T01:21:28.705Z,0.00
2018-08-28T01:22:28.677Z,0.00
2018-08-28T01:23:28.649Z,0.00
2018-08-28T01:24:28.621Z,0.00
2018-08-28T01:25:28.593Z,0.00
2018-08-28T01:26:28.565Z,0.00
2018-08-28T01:27:28.540Z,0.00
2018-08-28T01:28:28.507Z,0.00
2018-08-28T01:29:28.482Z,0.00
2018-08-28T01:30:28.454Z,0.00
2018-08-28T01:31:28.426Z,0.00
2018-08-28T01:32:28.400Z,0.00
2018-08-28T01:33:28.368Z,0.00
2018-08-28T01:34:28.340Z,0.00
2018-08-28T01:35:28.312Z,0.00
2018-08-28T01:36:28.286Z,0.00
2018-08-28T01:37:28.255Z,0.00
2018-08-28T01:38:28.227Z,0.00
2018-08-28T01:39:28.199Z,0.00
2018-08-28T01:40:28.171Z,0.00
2018-08-28T01:41:28.143Z,0.00
2018-08-28T01:42:28.115Z,0.00
2018-08-28T01:43:28.087Z,0.00
2018-08-28T01:44:28.060Z,0.00
2018-08-28T01:45:28.032Z,0.00
2018-08-28T01:46:28.004Z,0.00
2018-08-28T01:47:27.974Z,0.00
2018-08-28T01:48:27.950Z,0.00
2018-08-28T01:49:27.919Z,0.00
2018-08-28T01:50:27.891Z,0.00
2018-08-28T01:51:27.861Z,0.00
2018-08-28T01:52:27.834Z,0.00
2018-08-28T01:53:27.804Z,0.00
2018-08-28T01:54:27.779Z,0.00
2018-08-28T01:55:27.750Z,0.00
2018-08-28T01:56:27.722Z,0.00
2018-08-28T01:57:27.693Z,0.00
2018-08-28T01:58:27.665Z,0.00
2018-08-28T01:59:27.640Z,0.00
2018-08-28T02:00:27.609Z,0.00
2018-08-28T02:01:27.582Z,0.00
2018-08-28T02:02:27.555Z,0.00
2018-08-28T02:03:27.524Z,0.00
2018-08-28T02:04:27.496Z,0.00
2018-08-28T02:05:27.469Z,0.00
2018-08-28T02:06:27.439Z,0.00
2018-08-28T02:07:27.413Z,0.00
2018-08-28T02:08:27.384Z,0.00
2018-08-28T02:09:27.354Z,0.00
2018-08-28T02:10:27.830Z,0.00
2018-08-28T02:11:27.298Z,0.00
2018-08-28T02:12:27.272Z,0.00
2018-08-28T02:13:27.251Z,0.00
2018-08-28T02:14:27.218Z,0.00
2018-08-28T02:15:27.186Z,0.00
2018-08-28T02:16:27.158Z,0.00
2018-08-28T02:17:27.129Z,0.00
2018-08-28T02:18:27.103Z,0.00
2018-08-28T02:19:27.074Z,0.00
2018-08-28T02:20:27.049Z,0.00
2018-08-28T02:21:27.019Z,0.00
2018-08-28T02:22:26.991Z,0.00
2018-08-28T02:23:26.965Z,0.00
2018-08-28T02:24:26.936Z,0.00
2018-08-28T02:25:26.906Z,0.00
2018-08-28T02:26:26.878Z,0.00
2018-08-28T02:27:26.848Z,0.00
2018-08-28T02:28:26.821Z,0.00
2018-08-28T02:29:26.795Z,0.00
2018-08-28T02:30:26.769Z,0.00
2018-08-28T02:31:26.737Z,0.00
2018-08-28T02:32:26.710Z,0.00
2018-08-28T02:33:26.684Z,0.00
2018-08-28T02:34:26.651Z,0.00
2018-08-28T02:35:26.623Z,0.00
2018-08-28T02:36:26.601Z,0.00
2018-08-28T02:37:26.568Z,0.00
2018-08-28T02:38:26.539Z,0.00
2018-08-28T02:39:26.514Z,0.00
2018-08-28T02:40:26.484Z,0.00
2018-08-28T02:41:26.454Z,0.00
2018-08-28T02:42:26.427Z,0.00
2018-08-28T02:43:26.399Z,0.00
2018-08-28T02:44:26.370Z,0.00
2018-08-28T02:45:26.342Z,0.00
2018-08-28T02:46:26.315Z,0.00
2018-08-28T02:47:26.287Z,0.00
2018-08-28T02:48:26.259Z,0.00
2018-08-28T02:49:26.233Z,0.00
2018-08-28T02:50:26.201Z,0.00
2018-08-28T02:51:26.174Z,0.00
2018-08-28T02:52:26.146Z,0.00
2018-08-28T02:53:26.117Z,0.00
2018-08-28T02:54:26.090Z,0.00
2018-08-28T02:55:26.061Z,0.00
2018-08-28T02:56:26.033Z,0.00
2018-08-28T02:57:26.004Z,0.00
2018-08-28T02:58:25.978Z,0.00
2018-08-28T02:59:25.949Z,0.00
2018-08-28T03:00:25.921Z,0.00
2018-08-28T03:01:25.891Z,0.00
2018-08-28T03:02:25.867Z,0.00
2018-08-28T03:03:25.836Z,0.00
2018-08-28T03:04:25.810Z,0.00
2018-08-28T03:05:25.781Z,0.00
2018-08-28T03:06:25.751Z,0.00
2018-08-28T03:07:25.723Z,0.00
2018-08-28T03:08:25.696Z,0.00
2018-08-28T03:09:25.668Z,0.00
2018-08-28T03:10:25.644Z,0.00
2018-08-28T03:11:25.705Z,0.00
2018-08-28T03:12:25.582Z,0.00
2018-08-28T03:13:25.554Z,0.00
2018-08-28T03:14:25.551Z,0.00
2018-08-28T03:15:25.512Z,0.00
2018-08-28T03:16:25.470Z,0.00
2018-08-28T03:17:25.443Z,0.00
2018-08-28T03:18:25.415Z,0.00
2018-08-28T03:19:25.387Z,0.00
2018-08-28T03:20:25.359Z,0.00
2018-08-28T03:21:25.332Z,0.00
2018-08-28T03:22:25.304Z,0.00
2018-08-28T03:23:25.274Z,0.00
2018-08-28T03:24:25.250Z,0.00
2018-08-28T03:25:25.220Z,0.00
2018-08-28T03:26:25.197Z,0.00
2018-08-28T03:27:25.163Z,0.00
2018-08-28T03:28:25.134Z,0.00
2018-08-28T03:29:25.110Z,0.00
2018-08-28T03:30:25.080Z,0.00
2018-08-28T03:31:25.052Z,0.00
2018-08-28T03:32:25.024Z,0.00
2018-08-28T03:33:24.995Z,0.00
2018-08-28T03:34:24.967Z,0.00
2018-08-28T03:35:24.940Z,0.00
2018-08-28T03:36:24.911Z,0.00
2018-08-28T03:37:24.883Z,0.00
2018-08-28T03:38:24.856Z,0.00
2018-08-28T03:39:24.827Z,0.00
2018-08-28T03:40:24.799Z,0.00
2018-08-28T03:41:24.773Z,0.00
2018-08-28T03:42:24.745Z,0.00
2018-08-28T03:43:24.718Z,0.00
2018-08-28T03:44:24.688Z,0.00
2018-08-28T03:45:24.661Z,0.00
2018-08-28T03:46:24.634Z,0.00
2018-08-28T03:47:24.604Z,0.00
2018-08-28T03:48:24.582Z,0.00
2018-08-28T03:49:24.550Z,0.00
2018-08-28T03:50:24.521Z,0.00
2018-08-28T03:51:24.494Z,0.00
2018-08-28T03:52:24.463Z,0.00
2018-08-28T03:53:24.439Z,0.00
2018-08-28T03:54:24.412Z,0.00
2018-08-28T03:55:24.390Z,0.00
2018-08-28T03:56:24.355Z,0.00
2018-08-28T03:57:24.327Z,0.00
2018-08-28T03:58:24.301Z,0.00
2018-08-28T03:59:24.272Z,0.00
2018-08-28T04:00:24.243Z,0.00
2018-08-28T04:01:24.214Z,0.00
2018-08-28T04:02:24.190Z,0.00
2018-08-28T04:03:24.161Z,0.00
2018-08-28T04:04:24.134Z,0.00
2018-08-28T04:05:24.105Z,0.00
2018-08-28T04:06:24.080Z,0.00
2018-08-28T04:07:24.049Z,0.00
2018-08-28T04:08:24.023Z,0.00
2018-08-28T04:09:23.995Z,0.00
2018-08-28T04:10:23.969Z,0.00
2018-08-28T04:11:23.938Z,0.00
2018-08-28T04:12:23.911Z,0.00
2018-08-28T04:13:23.884Z,0.00
2018-08-28T04:14:23.858Z,0.00
2018-08-28T04:15:23.827Z,5.63
2018-08-28T04:16:23.801Z,5.63
2018-08-28T04:17:23.773Z,5.63
2018-08-28T04:18:23.749Z,5.63
2018-08-28T04:19:23.720Z,5.63
2018-08-28T04:20:23.691Z,5.63
2018-08-28T04:21:23.662Z,5.63
2018-08-28T04:22:23.682Z,5.63
2018-08-28T04:23:23.607Z,11.25
2018-08-28T04:24:23.581Z,11.25
2018-08-28T04:25:23.552Z,11.25
2018-08-28T04:26:23.525Z,11.25
2018-08-28T04:27:23.497Z,11.25
2018-08-28T04:28:23.470Z,16.88
2018-08-28T04:29:23.440Z,16.88
2018-08-28T04:30:23.424Z,16.88
2018-08-28T04:31:23.388Z,16.88
2018-08-28T04:32:23.359Z,22.50
2018-08-28T04:33:23.332Z,22.50
2018-08-28T04:34:23.304Z,28.13
2018-08-28T04:35:23.276Z,28.13
2018-08-28T04:36:23.247Z,28.13
2018-08-28T04:37:23.221Z,28.13
2018-08-28T04:38:23.192Z,33.75
2018-08-28T04:39:23.167Z,33.75
2018-08-28T04:40:23.137Z,33.75
2018-08-28T04:41:23.112Z,39.38
2018-08-28T04:42:23.085Z,39.38
2018-08-28T04:43:23.056Z,39.38
2018-08-28T04:44:23.028Z,39.38
2018-08-28T04:45:22.999Z,45.00
2018-08-28T04:46:22.976Z,45.00
2018-08-28T04:47:22.944Z,45.00
2018-08-28T04:48:22.960Z,45.00
2018-08-28T04:49:22.890Z,50.63
2018-08-28T04:50:22.862Z,50.63
2018-08-28T04:51:22.835Z,50.63
2018-08-28T04:52:22.806Z,56.25
2018-08-28T04:53:22.779Z,56.25
2018-08-28T04:54:23.439Z,56.25
2018-08-28T04:55:22.727Z,61.88
2018-08-28T04:56:22.699Z,61.88
2018-08-28T04:57:22.670Z,61.88
2018-08-28T04:58:22.642Z,61.88
2018-08-28T04:59:22.615Z,67.50
2018-08-28T05:02:01.829Z,73.13
2018-08-28T05:03:01.785Z,73.13
2018-08-28T05:04:54.592Z,78.75
2018-08-28T05:05:54.560Z,78.75
2018-08-28T05:07:47.683Z,84.38
2018-08-28T05:08:47.634Z,84.38
2018-08-28T05:10:41.938Z,90.00
2018-08-28T05:11:41.907Z,90.00
2018-08-28T05:13:35.028Z,95.63
2018-08-28T05:14:34.977Z,95.63
2018-08-28T05:16:27.786Z,101.25
2018-08-28T05:17:27.755Z,101.25
2018-08-28T05:18:27.728Z,106.88
2018-08-28T05:19:27.778Z,106.88
2018-08-28T05:20:27.672Z,106.88
2018-08-28T05:21:28.383Z,112.50
2018-08-28T05:22:27.618Z,112.50
2018-08-28T05:23:27.590Z,112.50
2018-08-28T05:24:27.564Z,118.13
2018-08-28T05:25:27.532Z,118.13
2018-08-28T05:26:27.508Z,118.13
2018-08-28T05:27:27.480Z,118.13
2018-08-28T05:28:27.453Z,118.13
2018-08-28T05:29:27.446Z,123.75
2018-08-28T05:30:27.498Z,123.75
2018-08-28T05:31:27.370Z,123.75
2018-08-28T05:32:27.345Z,129.38
2018-08-28T05:33:27.317Z,129.38
2018-08-28T05:34:27.288Z,135.00
2018-08-28T05:35:27.264Z,135.00
2018-08-28T05:36:27.235Z,135.00
2018-08-28T05:37:27.204Z,135.00
2018-08-28T05:38:27.182Z,135.00
2018-08-28T05:39:27.153Z,140.63
2018-08-28T05:40:27.126Z,140.63
2018-08-28T05:41:27.099Z,140.63
2018-08-28T05:42:27.073Z,146.25
2018-08-28T05:43:27.045Z,146.25
2018-08-28T05:44:27.019Z,146.25
2018-08-28T05:45:26.990Z,151.88
2018-08-28T05:46:26.962Z,151.88
2018-08-28T05:47:26.937Z,151.88
2018-08-28T05:48:26.910Z,157.50
2018-08-28T05:49:26.904Z,157.50
2018-08-28T05:50:26.854Z,157.50
2018-08-28T05:51:26.828Z,163.13
2018-08-28T05:52:26.805Z,163.13
2018-08-28T05:53:26.774Z,163.13
2018-08-28T05:54:26.760Z,168.75
2018-08-28T05:55:26.720Z,168.75
2018-08-28T05:56:26.696Z,174.38
2018-08-28T05:57:26.666Z,174.38
2018-08-28T05:58:26.640Z,174.38
2018-08-28T05:59:26.613Z,174.38
2018-08-28T06:00:26.595Z,180.00
2018-08-28T06:01:26.564Z,180.00
2018-08-28T06:02:26.535Z,180.00
2018-08-28T06:03:26.659Z,185.63
2018-08-28T06:04:26.484Z,185.63
2018-08-28T06:05:26.452Z,185.63
2018-08-28T06:06:26.426Z,185.63
2018-08-28T06:07:26.402Z,191.25
2018-08-28T06:08:26.374Z,191.25
2018-08-28T06:09:26.347Z,191.25
2018-08-28T06:10:26.320Z,191.25
2018-08-28T06:11:26.296Z,196.88
2018-08-28T06:12:26.272Z,196.88
2018-08-28T06:13:26.241Z,202.50
2018-08-28T06:14:26.214Z,202.50
2018-08-28T06:15:26.189Z,202.50
2018-08-28T06:16:26.163Z,202.50
2018-08-28T06:17:26.135Z,202.50
2018-08-28T06:18:26.109Z,208.13
2018-08-28T06:19:26.089Z,208.13
2018-08-28T06:20:26.059Z,208.13
2018-08-28T06:21:26.031Z,213.75
2018-08-28T06:22:26.006Z,213.75
2018-08-28T06:23:25.978Z,208.13
2018-08-28T06:24:25.953Z,219.38
2018-08-28T06:25:26.893Z,219.38
2018-08-28T06:26:25.912Z,219.38
2018-08-28T06:27:25.875Z,225.00
2018-08-28T06:28:25.851Z,219.38
2018-08-28T06:29:25.824Z,225.00
2018-08-28T06:30:25.797Z,225.00
2018-08-28T06:31:25.771Z,230.63
2018-08-28T06:32:25.745Z,230.63
2018-08-28T06:33:25.719Z,230.63
2018-08-28T06:34:25.693Z,225.00
2018-08-28T06:35:25.668Z,236.25
2018-08-28T06:36:25.641Z,241.88
2018-08-28T06:37:25.745Z,241.88
2018-08-28T06:38:25.590Z,247.50
2018-08-28T06:39:25.564Z,247.50
2018-08-28T06:40:25.539Z,247.50
2018-08-28T06:41:25.511Z,253.13
2018-08-28T06:42:25.490Z,247.50
2018-08-28T06:43:25.517Z,258.75
2018-08-28T06:44:25.434Z,253.13
2018-08-28T06:45:25.408Z,236.25
2018-08-28T06:46:25.383Z,258.75
2018-08-28T06:47:25.359Z,258.75
2018-08-28T06:48:25.332Z,241.88
2018-08-28T06:49:25.335Z,258.75
2018-08-28T06:50:25.280Z,264.38
2018-08-28T06:51:25.258Z,253.13
2018-08-28T06:52:25.232Z,247.50
2018-08-28T06:53:25.203Z,264.38
2018-08-28T06:54:25.177Z,270.00
2018-08-28T06:55:25.154Z,270.00
2018-08-28T06:56:25.130Z,258.75
2018-08-28T06:57:25.101Z,275.63
2018-08-28T06:58:25.075Z,275.63
2018-08-28T06:59:25.052Z,275.63
2018-08-28T07:00:25.026Z,258.75
2018-08-28T07:01:25.002Z,275.63
2018-08-28T07:02:25.065Z,281.25
2018-08-28T07:03:24.949Z,281.25
2018-08-28T07:04:24.925Z,286.88
2018-08-28T07:05:24.898Z,286.88
2018-08-28T07:06:24.873Z,286.88
2018-08-28T07:07:24.849Z,292.50
2018-08-28T07:08:24.824Z,292.50
2018-08-28T07:09:24.803Z,292.50
2018-08-28T07:10:24.924Z,298.13
2018-08-28T07:11:24.754Z,298.13
2018-08-28T07:12:24.723Z,298.13
2018-08-28T07:13:24.696Z,303.75
2018-08-28T07:14:24.672Z,303.75
2018-08-28T07:15:24.647Z,303.75
2018-08-28T07:16:24.630Z,303.75
2018-08-28T07:17:24.595Z,309.38
2018-08-28T07:18:24.636Z,309.38
2018-08-28T07:19:24.547Z,309.38
2018-08-28T07:20:24.520Z,315.00
2018-08-28T07:21:24.497Z,315.00
2018-08-28T07:22:24.472Z,315.00
2018-08-28T07:23:24.447Z,315.00
2018-08-28T07:24:24.423Z,320.63
2018-08-28T07:25:24.440Z,320.63
2018-08-28T07:26:24.372Z,326.25
2018-08-28T07:27:24.350Z,320.63
2018-08-28T07:28:24.323Z,326.25
2018-08-28T07:29:24.298Z,326.25
2018-08-28T07:30:24.275Z,326.25
2018-08-28T07:31:24.290Z,331.88
2018-08-28T07:32:24.228Z,331.88
2018-08-28T07:33:24.200Z,331.88
2018-08-28T07:34:24.176Z,315.00
2018-08-28T07:35:24.152Z,315.00
2018-08-28T07:36:24.127Z,320.63
2018-08-28T07:37:24.162Z,331.88
2018-08-28T07:38:24.139Z,337.50
2018-08-28T07:39:24.056Z,309.38
2018-08-28T07:40:24.032Z,331.88
2018-08-28T07:41:24.007Z,337.50
2018-08-28T07:42:23.982Z,337.50
2018-08-28T07:43:23.963Z,337.50
2018-08-28T07:44:23.933Z,343.13
2018-08-28T07:45:23.910Z,348.75
2018-08-28T07:46:23.888Z,348.75
2018-08-28T07:47:23.861Z,348.75
2018-08-28T07:48:23.902Z,348.75
2018-08-28T07:49:23.815Z,354.38
2018-08-28T07:50:23.790Z,337.50
2018-08-28T07:51:23.806Z,354.38
2018-08-28T07:52:23.746Z,354.38
2018-08-28T07:53:23.718Z,354.38
2018-08-28T07:54:23.696Z,360.00
2018-08-28T07:55:23.676Z,354.38
2018-08-28T07:56:23.652Z,360.00
2018-08-28T07:57:23.622Z,360.00
2018-08-28T07:58:23.605Z,348.75
2018-08-28T07:59:23.579Z,360.00
2018-08-28T08:00:23.554Z,365.63
2018-08-28T08:01:23.541Z,365.63
2018-08-28T08:02:23.509Z,365.63
2018-08-28T08:03:23.483Z,365.63
2018-08-28T08:04:23.461Z,365.63
2018-08-28T08:05:23.436Z,360.00
2018-08-28T08:06:23.415Z,365.63
2018-08-28T08:07:23.391Z,365.63
2018-08-28T08:08:23.369Z,371.25
2018-08-28T08:09:23.342Z,376.88
2018-08-28T08:10:23.342Z,371.25
2018-08-28T08:11:23.300Z,371.25
2018-08-28T08:12:23.276Z,376.88
2018-08-28T08:13:23.249Z,376.88
2018-08-28T08:14:23.229Z,376.88
2018-08-28T08:15:23.206Z,376.88
2018-08-28T08:16:23.181Z,382.50
2018-08-28T08:17:23.159Z,382.50
2018-08-28T08:18:23.138Z,382.50
2018-08-28T08:19:23.112Z,388.13
2018-08-28T08:20:23.089Z,388.13
2018-08-28T08:21:23.064Z,393.75
2018-08-28T08:22:23.082Z,393.75
2018-08-28T08:23:23.020Z,399.38
2018-08-28T08:24:22.997Z,399.38
2018-08-28T08:25:22.973Z,405.00
2018-08-28T08:26:22.952Z,410.63
2018-08-28T08:27:22.928Z,410.63
2018-08-28T08:28:22.993Z,416.25
2018-08-28T08:29:22.880Z,416.25
2018-08-28T08:30:22.859Z,421.88
2018-08-28T08:31:22.838Z,416.25
2018-08-28T08:32:22.839Z,416.25
2018-08-28T08:33:22.793Z,410.63
2018-08-28T08:34:22.767Z,410.63
2018-08-28T08:35:22.854Z,410.63
2018-08-28T08:36:22.722Z,410.63
2018-08-28T08:37:22.700Z,416.25
2018-08-28T08:38:22.676Z,416.25
2018-08-28T08:39:22.657Z,421.88
2018-08-28T08:40:22.631Z,421.88
2018-08-28T08:41:22.608Z,421.88
2018-08-28T08:42:22.586Z,433.13
2018-08-28T08:43:22.566Z,433.13
2018-08-28T08:44:22.544Z,427.50
2018-08-28T08:45:22.520Z,427.50
2018-08-28T08:46:22.498Z,427.50
2018-08-28T08:47:22.477Z,427.50
2018-08-28T08:48:22.455Z,438.75
2018-08-28T08:49:22.431Z,444.38
2018-08-28T08:50:22.409Z,455.63
2018-08-28T08:51:22.390Z,455.63
2018-08-28T08:52:22.365Z,444.38
2018-08-28T08:53:22.344Z,455.63
2018-08-28T08:54:22.322Z,450.00
2018-08-28T08:55:22.301Z,438.75
2018-08-28T08:56:22.277Z,444.38
2018-08-28T08:57:22.317Z,444.38
2018-08-28T08:58:22.234Z,450.00
2018-08-28T08:59:22.213Z,455.63
2018-08-28T09:00:22.190Z,450.00
2018-08-28T09:01:22.169Z,444.38
2018-08-28T09:02:22.149Z,450.00
2018-08-28T09:03:22.124Z,450.00
2018-08-28T09:04:22.105Z,455.63
2018-08-28T09:05:22.081Z,450.00
2018-08-28T09:06:22.061Z,455.63
2018-08-28T09:07:22.041Z,455.63
2018-08-28T09:08:22.018Z,461.25
2018-08-28T09:09:21.997Z,461.25
2018-08-28T09:10:21.977Z,466.88
2018-08-28T09:11:21.957Z,472.50
2018-08-28T09:12:21.932Z,472.50
2018-08-28T09:13:21.924Z,472.50
2018-08-28T09:14:21.891Z,466.88
2018-08-28T09:15:21.870Z,466.88
2018-08-28T09:16:21.846Z,472.50
2018-08-28T09:17:21.827Z,478.13
2018-08-28T09:18:21.807Z,489.38
2018-08-28T09:19:21.793Z,489.38
2018-08-28T09:20:21.763Z,495.00
2018-08-28T09:21:21.740Z,489.38
2018-08-28T09:22:21.720Z,483.75
2018-08-28T09:23:21.715Z,489.38
2018-08-28T09:24:22.430Z,489.38
2018-08-28T09:25:21.657Z,489.38
2018-08-28T09:26:21.889Z,489.38
2018-08-28T09:27:21.612Z,489.38
2018-08-28T09:28:21.597Z,495.00
2018-08-28T09:29:21.572Z,511.88
2018-08-28T09:30:21.553Z,517.50
2018-08-28T09:31:21.532Z,517.50
2018-08-28T09:32:21.554Z,506.25
2018-08-28T09:33:21.490Z,506.25
2018-08-28T09:34:21.469Z,506.25
2018-08-28T09:35:21.450Z,511.88
2018-08-28T09:36:21.428Z,517.50
2018-08-28T09:37:21.408Z,511.88
2018-08-28T09:38:21.427Z,506.25
2018-08-28T09:39:21.367Z,506.25
2018-08-28T09:40:21.350Z,517.50
2018-08-28T09:41:21.324Z,523.13
2018-08-28T09:42:21.306Z,528.75
2018-08-28T09:43:21.285Z,523.13
2018-08-28T09:44:21.266Z,523.13
2018-08-28T09:45:21.244Z,528.75
2018-08-28T09:46:21.224Z,540.00
2018-08-28T09:47:21.206Z,545.63
2018-08-28T09:48:21.267Z,551.25
2018-08-28T09:49:21.165Z,556.88
2018-08-28T09:50:21.204Z,556.88
2018-08-28T09:51:21.938Z,556.88
2018-08-28T09:52:21.105Z,545.63
2018-08-28T09:53:21.096Z,551.25
2018-08-28T09:54:21.065Z,551.25
2018-08-28T09:55:21.051Z,562.50
2018-08-28T09:56:21.064Z,562.50
2018-08-28T09:57:21.005Z,551.25
2018-08-28T09:58:20.988Z,534.38
2018-08-28T09:59:20.969Z,528.75
2018-08-28T10:00:20.949Z,528.75
2018-08-28T10:01:20.930Z,528.75
2018-08-28T10:02:20.911Z,528.75
2018-08-28T10:03:20.890Z,528.75
2018-08-28T10:04:20.934Z,534.38
2018-08-28T10:05:20.850Z,534.38
2018-08-28T10:06:20.830Z,545.63
2018-08-28T10:07:20.821Z,551.25
2018-08-28T10:08:20.792Z,545.63
2018-08-28T10:09:20.771Z,545.63
2018-08-28T10:10:20.756Z,545.63
2018-08-28T10:11:20.732Z,551.25
2018-08-28T10:12:20.716Z,545.63
2018-08-28T10:13:20.695Z,545.63
2018-08-28T10:14:20.678Z,545.63
2018-08-28T10:15:20.661Z,551.25
2018-08-28T10:16:20.645Z,562.50
2018-08-28T10:17:20.636Z,545.63
2018-08-28T10:18:20.598Z,540.00
2018-08-28T10:19:20.579Z,545.63
2018-08-28T10:20:20.561Z,551.25
2018-08-28T10:21:20.542Z,551.25
2018-08-28T10:22:20.527Z,562.50
2018-08-28T10:23:20.503Z,568.13
2018-08-28T10:24:20.485Z,556.88
2018-08-28T10:25:20.465Z,556.88
2018-08-28T10:26:20.447Z,562.50
2018-08-28T10:27:20.426Z,562.50
2018-08-28T10:28:20.408Z,556.88
2018-08-28T10:29:20.387Z,556.88
2018-08-28T10:30:20.432Z,545.63
2018-08-28T10:31:20.349Z,556.88
2018-08-28T10:32:20.332Z,562.50
2018-08-28T10:33:20.320Z,568.13
2018-08-28T10:34:20.295Z,573.75
2018-08-28T10:35:20.277Z,579.38
2018-08-28T10:36:20.250Z,585.00
2018-08-28T10:37:20.237Z,596.25
2018-08-28T10:38:20.220Z,607.50
2018-08-28T10:39:20.200Z,618.75
2018-08-28T10:40:20.191Z,613.13
2018-08-28T10:41:20.162Z,601.88
2018-08-28T10:42:21.156Z,590.63
2018-08-28T10:43:20.125Z,585.00
2018-08-28T10:44:20.105Z,585.00
2018-08-28T10:45:20.089Z,585.00
2018-08-28T10:46:20.147Z,590.63
2018-08-28T10:47:20.056Z,596.25
2018-08-28T10:48:20.034Z,601.88
2018-08-28T10:49:20.014Z,590.63
2018-08-28T10:50:19.993Z,590.63
2018-08-28T10:51:19.973Z,596.25
2018-08-28T10:52:19.965Z,596.25
2018-08-28T10:53:19.960Z,596.25
2018-08-28T10:54:19.922Z,596.25
2018-08-28T10:55:19.903Z,607.50
2018-08-28T10:56:19.884Z,607.50
2018-08-28T10:57:20.401Z,618.75
2018-08-28T10:58:19.849Z,607.50
2018-08-28T10:59:19.831Z,489.38
2018-08-28T11:00:19.812Z,382.50
2018-08-28T11:01:19.797Z,354.38
2018-08-28T11:02:19.777Z,326.25
2018-08-28T11:03:19.778Z,371.25
2018-08-28T11:04:19.743Z,360.00
2018-08-28T11:05:20.458Z,405.00
2018-08-28T11:06:19.706Z,388.13
2018-08-28T11:07:19.689Z,607.50
2018-08-28T11:08:19.669Z,495.00
2018-08-28T11:09:19.650Z,601.88
2018-08-28T11:10:19.656Z,590.63
2018-08-28T11:11:19.614Z,568.13
2018-08-28T11:12:19.604Z,568.13
2018-08-28T11:13:19.579Z,573.75
2018-08-28T11:14:19.556Z,579.38
2018-08-28T11:15:19.542Z,573.75
2018-08-28T11:16:19.533Z,579.38
2018-08-28T11:17:19.503Z,517.50
2018-08-28T11:18:19.485Z,354.38
2018-08-28T11:19:19.475Z,337.50
2018-08-28T11:20:19.455Z,326.25
2018-08-28T11:21:19.431Z,320.63
2018-08-28T11:22:19.445Z,326.25
2018-08-28T11:23:19.393Z,331.88
2018-08-28T11:24:19.373Z,337.50
2018-08-28T11:25:19.357Z,354.38
2018-08-28T11:26:19.336Z,568.13
2018-08-28T11:27:19.320Z,573.75
2018-08-28T11:28:19.302Z,590.63
2018-08-28T11:29:19.283Z,590.63
2018-08-28T11:30:19.263Z,596.25
2018-08-28T11:31:19.291Z,601.88
2018-08-28T11:32:19.228Z,601.88
2018-08-28T11:33:19.206Z,613.13
2018-08-28T11:34:19.188Z,624.38
2018-08-28T11:35:19.170Z,618.75
2018-08-28T11:36:19.153Z,613.13
2018-08-28T11:37:19.132Z,585.00
2018-08-28T11:38:19.150Z,573.75
2018-08-28T11:39:19.098Z,573.75
2018-08-28T11:40:19.080Z,573.75
2018-08-28T11:41:19.061Z,376.88
2018-08-28T11:42:19.051Z,371.25
2018-08-28T11:43:19.029Z,371.25
2018-08-28T11:44:19.008Z,399.38
2018-08-28T11:45:18.989Z,410.63
2018-08-28T11:46:18.969Z,590.63
2018-08-28T11:47:19.058Z,545.63
2018-08-28T11:48:18.935Z,568.13
2018-08-28T11:49:18.918Z,568.13
2018-08-28T11:50:18.901Z,562.50
2018-08-28T11:51:18.883Z,551.25
2018-08-28T11:52:18.907Z,545.63
2018-08-28T11:53:18.926Z,545.63
2018-08-28T11:54:18.830Z,545.63
2018-08-28T11:55:18.809Z,562.50
2018-08-28T11:56:18.793Z,573.75
2018-08-28T11:57:18.774Z,585.00
2018-08-28T11:58:18.758Z,596.25
2018-08-28T11:59:18.739Z,607.50
2018-08-28T12:00:18.722Z,613.13
2018-08-28T12:01:18.703Z,618.75
2018-08-28T12:02:18.687Z,613.13
2018-08-28T12:03:18.669Z,596.25
2018-08-28T12:04:18.648Z,438.75
2018-08-28T12:05:18.653Z,354.38
2018-08-28T12:06:18.616Z,326.25
2018-08-28T12:07:18.693Z,303.75
2018-08-28T12:08:18.579Z,281.25
2018-08-28T12:09:18.565Z,275.63
2018-08-28T12:10:18.548Z,270.00
2018-08-28T12:11:18.529Z,275.63
2018-08-28T12:12:18.512Z,286.88
2018-08-28T12:13:18.493Z,506.25
2018-08-28T12:14:18.477Z,416.25
2018-08-28T12:15:18.460Z,365.63
2018-08-28T12:16:18.440Z,399.38
2018-08-28T12:17:18.421Z,399.38
2018-08-28T12:18:18.404Z,393.75
2018-08-28T12:19:18.387Z,421.88
2018-08-28T12:20:18.381Z,568.13
2018-08-28T12:21:18.351Z,438.75
2018-08-28T12:22:18.330Z,466.88
2018-08-28T12:23:18.311Z,618.75
2018-08-28T12:24:18.293Z,618.75
2018-08-28T12:25:18.277Z,506.25
2018-08-28T12:26:18.258Z,466.88
2018-08-28T12:27:18.241Z,472.50
2018-08-28T12:28:18.221Z,461.25
2018-08-28T12:29:18.203Z,478.13
2018-08-28T12:30:18.184Z,461.25
2018-08-28T12:31:18.166Z,444.38
2018-08-28T12:32:18.152Z,438.75
2018-08-28T12:33:18.130Z,444.38
2018-08-28T12:34:18.110Z,438.75
2018-08-28T12:35:18.089Z,433.13
2018-08-28T12:36:18.075Z,410.63
2018-08-28T12:37:18.110Z,433.13
2018-08-28T12:38:18.038Z,348.75
2018-08-28T12:39:18.020Z,433.13
2018-08-28T12:40:18.002Z,360.00
2018-08-28T12:41:17.984Z,354.38
2018-08-28T12:42:17.965Z,365.63
2018-08-28T12:43:17.947Z,376.88
2018-08-28T12:44:17.931Z,388.13
2018-08-28T12:45:17.910Z,393.75
2018-08-28T12:46:17.894Z,382.50
2018-08-28T12:47:17.874Z,382.50
2018-08-28T12:48:17.858Z,382.50
2018-08-28T12:49:17.865Z,376.88
2018-08-28T12:50:17.818Z,371.25
2018-08-28T12:51:17.815Z,371.25
2018-08-28T12:52:17.783Z,371.25